Terminal Aerodrome Forecast
Issued by NWS

Home | Current Version | Previous Version | Text Only | Print | Product List | Glossary On
Versions: 1 2 3 4 5 6 7 8 9 10 11 12 13 14 15 16 17 18 19 20 21
293
FTUS43 KSGF 282013 AAA
TAFJLN
TAF AMD
KJLN 282013Z 2820/2918 30012G18KT P6SM SCT045
     FM282300 30007KT P6SM SCT080
     FM290600 20004KT P6SM SKC
     FM291600 25008KT P6SM FEW250=

USA.gov is the U.S. government's official web portal to all federal, state and local government web resources and services.